»·PEaware :: N792VA KIFP-KSNA

N792VA :: KIFP-KSNA

FLIGHT INFORMATION

Flight Status: Arrived
Operator: Privately registered:
United States
More flights under this callsign
Pilot: Scott M. (16181)
Aircraft: Unknown
(P28U)
More flights by this aircraft type
Origin: KIFP Laughlin/Bullhead Intl
United States
Destination: KSNA John Wayne-Orange Co
United States
More flights between these airports :: More routes between these airports
Route:
File this flight plan on PilotEdge
Remarks:
Altitude:
(Current/Filed)
8,500ft
Speed:
(Current/Filed)
140kts
Departed: 08-Oct-18 05:01 PM
Arrived: 08-Oct-18 06:35 PM
Distance/Time
Traveled:
186nm/1:33
Distance/Time
To Go:
Arrived

Flight Plot

Page will automatically refresh every two minutes.

Flight plan parsing failed; only flown route is shown


Map Options




Map Legend


Flown Route
Filed Route
Departure Airport
Arrival Airport
Navaid (VOR, NDB)
Fix

Horizontal Profiles

Position Reports

Time Latitude Longitude Heading Altitude Ground
Speed
08-Oct-18 16:45 35.159758 -114.556367 266 678ft 0kts
08-Oct-18 16:46 35.159758 -114.556367 266 678ft 0kts
08-Oct-18 16:47 35.159758 -114.556367 266 678ft 0kts
08-Oct-18 16:48 35.159758 -114.556367 266 678ft 0kts
08-Oct-18 16:49 35.159758 -114.556367 266 678ft 0kts
08-Oct-18 16:50 35.159758 -114.556367 266 678ft 0kts
08-Oct-18 16:51 35.159758 -114.556367 266 678ft 0kts
08-Oct-18 16:52 35.159758 -114.556367 266 678ft 0kts
08-Oct-18 16:53 35.159758 -114.556367 266 678ft 0kts
08-Oct-18 16:54 35.159758 -114.556367 266 678ft 0kts
08-Oct-18 16:55 35.159542 -114.557149 266 672ft 9kts
08-Oct-18 16:56 35.159001 -114.558244 178 664ft 6kts
08-Oct-18 16:57 35.156365 -114.558055 175 672ft 12kts
08-Oct-18 16:58 35.152296 -114.557765 176 677ft 16kts
08-Oct-18 16:59 35.148370 -114.557465 175 687ft 11kts
08-Oct-18 17:00 35.145900 -114.557641 242 694ft 0kts
08-Oct-18 17:01 35.145900 -114.557641 242 694ft 0kts
08-Oct-18 17:02 35.145900 -114.557641 242 694ft 0kts
08-Oct-18 17:03 35.149474 -114.558982 355 673ft 70kts
08-Oct-18 17:04 35.168028 -114.569380 226 1675ft 116kts
08-Oct-18 17:05 35.136376 -114.573018 178 2952ft 118kts
08-Oct-18 17:06 35.111050 -114.590431 263 4085ft 109kts
08-Oct-18 17:07 35.106245 -114.628566 271 5046ft 117kts
08-Oct-18 17:08 35.115604 -114.665117 293 5920ft 118kts
08-Oct-18 17:09 35.125692 -114.702745 283 6716ft 119kts
08-Oct-18 17:10 35.122784 -114.743594 264 7563ft 122kts
08-Oct-18 17:11 35.115832 -114.783485 263 8422ft 122kts
08-Oct-18 17:12 35.107722 -114.828645 263 8518ft 143kts
08-Oct-18 17:13 35.098961 -114.876719 263 8517ft 146kts
08-Oct-18 17:14 35.090126 -114.925071 263 8517ft 146kts
08-Oct-18 17:15 35.081327 -114.973136 263 8508ft 144kts
08-Oct-18 17:16 35.072538 -115.021057 262 8510ft 145kts
08-Oct-18 17:17 35.063936 -115.067647 262 8517ft 136kts
08-Oct-18 17:18 35.055231 -115.115034 261 8511ft 146kts
08-Oct-18 17:19 35.046571 -115.163746 261 8512ft 147kts
08-Oct-18 17:20 35.037731 -115.212846 260 8514ft 148kts
08-Oct-18 17:21 35.028665 -115.261937 261 8514ft 148kts
08-Oct-18 17:22 35.019542 -115.311077 261 8514ft 148kts
08-Oct-18 17:23 35.010403 -115.360162 261 8514ft 148kts
08-Oct-18 17:24 35.001277 -115.409049 261 8514ft 148kts
08-Oct-18 17:25 34.992127 -115.457888 261 8519ft 147kts
08-Oct-18 17:26 34.983039 -115.506380 261 8539ft 146kts
08-Oct-18 17:27 34.973976 -115.554605 261 8560ft 145kts
08-Oct-18 17:28 34.964944 -115.602552 261 8580ft 144kts
08-Oct-18 17:29 34.955992 -115.649962 262 8599ft 143kts
08-Oct-18 17:30 34.947275 -115.696024 261 8615ft 143kts
08-Oct-18 17:31 34.938305 -115.743326 261 8613ft 143kts
08-Oct-18 17:32 34.929323 -115.790569 261 8612ft 143kts
08-Oct-18 17:33 34.920346 -115.837679 261 8611ft 142kts
08-Oct-18 17:34 34.911374 -115.884666 261 8611ft 142kts
08-Oct-18 17:35 34.902430 -115.931392 261 8612ft 141kts
08-Oct-18 17:36 34.893773 -115.976516 261 8610ft 140kts
08-Oct-18 17:37 34.884880 -116.022780 261 8612ft 140kts
08-Oct-18 17:38 34.874965 -116.068524 259 8612ft 139kts
08-Oct-18 17:39 34.865434 -116.114391 261 8612ft 139kts
08-Oct-18 17:40 34.856413 -116.160274 261 8612ft 139kts
08-Oct-18 17:41 34.847486 -116.206181 261 8605ft 140kts
08-Oct-18 17:42 34.838503 -116.252385 261 8596ft 140kts
08-Oct-18 17:43 34.829502 -116.298597 261 8587ft 141kts
08-Oct-18 17:44 34.820428 -116.345095 261 8578ft 141kts
08-Oct-18 17:45 34.811297 -116.391693 260 8570ft 142kts
08-Oct-18 17:46 34.802161 -116.438343 260 8567ft 142kts
08-Oct-18 17:47 34.780035 -116.476876 219 8567ft 150kts
08-Oct-18 17:48 34.745950 -116.505951 218 8567ft 150kts
08-Oct-18 17:49 34.710842 -116.535439 218 8448ft 152kts
08-Oct-18 17:50 34.676238 -116.564376 218 8452ft 150kts
08-Oct-18 17:51 34.641875 -116.593082 218 8452ft 150kts
08-Oct-18 17:52 34.607342 -116.621901 218 8451ft 150kts
08-Oct-18 17:53 34.573321 -116.650281 218 8448ft 150kts
08-Oct-18 17:54 34.539237 -116.678646 218 8449ft 150kts
08-Oct-18 17:55 34.504655 -116.707409 218 8449ft 151kts
08-Oct-18 17:56 34.472556 -116.739083 237 8449ft 147kts
08-Oct-18 17:57 34.454130 -116.782592 249 8450ft 144kts
08-Oct-18 17:58 34.437399 -116.826960 250 8449ft 144kts
08-Oct-18 17:59 34.421366 -116.871635 251 8449ft 144kts
08-Oct-18 18:00 34.406651 -116.916671 253 8449ft 144kts
08-Oct-18 18:01 34.391337 -116.961537 249 8446ft 144kts
08-Oct-18 18:02 34.373479 -117.004753 240 8444ft 144kts
08-Oct-18 18:03 34.341449 -117.033915 200 8443ft 150kts
08-Oct-18 18:04 34.300061 -117.042426 188 8442ft 151kts
08-Oct-18 18:05 34.258313 -117.047936 191 8441ft 150kts
08-Oct-18 18:06 34.217146 -117.054584 187 8496ft 151kts
08-Oct-18 18:07 34.180496 -117.056301 188 8495ft 152kts
08-Oct-18 18:08 34.146574 -117.060993 189 8151ft 152kts
08-Oct-18 18:09 34.102718 -117.066855 190 7210ft 145kts
08-Oct-18 18:10 34.071380 -117.076588 231 6191ft 142kts
08-Oct-18 18:11 34.060946 -117.121640 250 5306ft 116kts
08-Oct-18 18:12 34.050352 -117.151351 247 4780ft 118kts
08-Oct-18 18:13 34.039403 -117.179898 245 4497ft 105kts
08-Oct-18 18:14 34.026527 -117.211909 245 4501ft 106kts
08-Oct-18 18:15 34.013880 -117.242859 245 4509ft 100kts
08-Oct-18 18:16 34.001622 -117.272759 246 4499ft 99kts
08-Oct-18 18:17 33.989514 -117.302231 246 4498ft 98kts
08-Oct-18 18:18 33.977380 -117.331740 246 4485ft 99kts
08-Oct-18 18:19 33.963416 -117.365763 245 4489ft 126kts
08-Oct-18 18:20 33.947624 -117.403637 245 4503ft 125kts
08-Oct-18 18:21 33.932011 -117.440983 246 4524ft 125kts
08-Oct-18 18:22 33.916496 -117.478447 246 4549ft 125kts
08-Oct-18 18:23 33.900947 -117.515972 246 4569ft 125kts
08-Oct-18 18:24 33.885697 -117.552730 247 4590ft 126kts
08-Oct-18 18:25 33.869992 -117.590580 246 4611ft 126kts
08-Oct-18 18:26 33.854240 -117.628479 245 4609ft 127kts
08-Oct-18 18:27 33.838560 -117.666157 245 4588ft 127kts
08-Oct-18 18:28 33.823418 -117.702502 245 4514ft 114kts
08-Oct-18 18:29 33.808984 -117.737030 244 4364ft 117kts
08-Oct-18 18:30 33.792434 -117.769920 235 3711ft 109kts
08-Oct-18 18:31 33.776176 -117.797390 227 2687ft 90kts
08-Oct-18 18:32 33.757824 -117.813853 211 1969ft 81kts
08-Oct-18 18:33 33.738264 -117.827064 208 1445ft 77kts
08-Oct-18 18:34 33.719675 -117.838904 207 1121ft 72kts
08-Oct-18 18:35 33.702370 -117.849947 207 567ft 70kts
08-Oct-18 18:36 33.685972 -117.860408 208 171ft 63kts
08-Oct-18 18:37 33.678145 -117.865432 207 59ft 15kts
08-Oct-18 18:38 33.676885 -117.865626 129 59ft 2kts
08-Oct-18 18:39 33.674395 -117.866903 206 59ft 10kts
08-Oct-18 18:40 33.672519 -117.866844 154 59ft 4kts

Navigation Log

Ident Type
Flight plan parsing failed, navigation log unavailable